Logo
Newest Metar:
CYQR 221630Z 14011KT 15SM -SHRA SCT070 OVC090 03/00 A2951 RMK AC3AC5 PRESFR SLP017

Last 10 Metars:
CYQR 221600Z 13009KT 15SM SCT070 OVC090 03/M01 A2953 RMK AC3AC5 SLP027
CYQR 221500Z 13007KT 15SM BKN087 M00/M02 A2957 RMK AC7 SLP041
CYQR 221400Z 13006KT 15SM OVC080 M02/M04 A2961 RMK AC8 SLP054
CYQR 221300Z 13007KT 15SM BKN180 M03/M05 A2963 RMK AC7 SLP063
CYQR 221200Z 17007KT 15SM SCT220 M04/M06 A2963 RMK CI3 SLP062
CYQR 221100Z 20007KT 15SM SKC M05/M07 A2965 RMK SLP068
CYQR 221000Z 20005KT 15SM SKC M04/M04 A2967 RMK SLP072
CYQR 220900Z 23006KT 15SM SKC M04/M05 A2969 RMK SLP080
CYQR 220800Z 24008KT 15SM SKC M03/M04 A2970 RMK SLP085
CYQR 220700Z 25003KT 15SM SKC M03/M04 A2971 RMK SLP087

Click here for Saskatoon (YXE) International Weather